sensor_id;sensor_type;location;lat;lon;timestamp;pressure;altitude;pressure_sealevel;temperature;humidity
26539;BME280;14205;43.200;24.170;2022-08-21T00:01:55;99285.59;;;21.04;100.00
26539;BME280;14205;43.200;24.170;2022-08-21T00:04:21;99293.41;;;21.10;100.00
26539;BME280;14205;43.200;24.170;2022-08-21T00:06:47;99273.50;;;21.18;100.00
26539;BME280;14205;43.200;24.170;2022-08-21T00:09:12;99278.41;;;21.04;100.00
26539;BME280;14205;43.200;24.170;2022-08-21T00:11:38;99282.13;;;21.03;100.00
26539;BME280;14205;43.200;24.170;2022-08-21T00:14:05;99280.25;;;21.04;100.00
26539;BME280;14205;43.200;24.170;2022-08-21T00:16:31;99278.28;;;20.95;100.00
26539;BME280;14205;43.200;24.170;2022-08-21T00:18:57;99270.78;;;20.92;100.00
26539;BME280;14205;43.200;24.170;2022-08-21T00:21:23;99264.88;;;20.90;100.00
26539;BME280;14205;43.200;24.170;2022-08-21T00:23:50;99254.78;;;20.92;100.00
26539;BME280;14205;43.200;24.170;2022-08-21T00:26:16;99246.44;;;20.88;100.00
26539;BME280;14205;43.200;24.170;2022-08-21T00:28:42;99241.63;;;20.85;100.00
26539;BME280;14205;43.200;24.170;2022-08-21T00:31:08;99244.84;;;20.87;100.00
26539;BME280;14205;43.200;24.170;2022-08-21T00:33:34;99253.88;;;20.86;100.00
26539;BME280;14205;43.200;24.170;2022-08-21T00:36:00;99252.97;;;20.97;100.00
26539;BME280;14205;43.200;24.170;2022-08-21T00:38:26;99247.16;;;21.00;100.00
26539;BME280;14205;43.200;24.170;2022-08-21T00:40:57;99241.50;;;20.97;100.00
26539;BME280;14205;43.200;24.170;2022-08-21T00:43:25;99256.88;;;20.90;100.00
26539;BME280;14205;43.200;24.170;2022-08-21T00:45:53;99263.44;;;20.82;100.00
26539;BME280;14205;43.200;24.170;2022-08-21T00:48:19;99253.03;;;20.81;100.00
26539;BME280;14205;43.200;24.170;2022-08-21T00:51:03;99257.91;;;20.89;100.00
26539;BME280;14205;43.200;24.170;2022-08-21T00:53:30;99263.19;;;20.84;100.00
26539;BME280;14205;43.200;24.170;2022-08-21T00:55:57;99257.88;;;20.84;100.00
26539;BME280;14205;43.200;24.170;2022-08-21T00:58:24;99272.00;;;20.84;100.00
26539;BME280;14205;43.200;24.170;2022-08-21T01:00:52;99264.22;;;20.83;100.00
26539;BME280;14205;43.200;24.170;2022-08-21T01:03:22;99280.78;;;20.85;100.00
26539;BME280;14205;43.200;24.170;2022-08-21T01:05:48;99273.81;;;20.79;100.00
26539;BME280;14205;43.200;24.170;2022-08-21T01:08:15;99270.56;;;20.77;100.00
26539;BME280;14205;43.200;24.170;2022-08-21T01:10:42;99271.53;;;20.87;100.00
26539;BME280;14205;43.200;24.170;2022-08-21T01:13:10;99271.34;;;20.94;100.00
26539;BME280;14205;43.200;24.170;2022-08-21T01:15:39;99277.91;;;20.86;100.00
26539;BME280;14205;43.200;24.170;2022-08-21T01:18:09;99272.78;;;20.85;100.00
26539;BME280;14205;43.200;24.170;2022-08-21T01:20:36;99262.97;;;20.85;100.00
26539;BME280;14205;43.200;24.170;2022-08-21T01:23:04;99265.06;;;20.83;100.00
26539;BME280;14205;43.200;24.170;2022-08-21T01:25:30;99272.63;;;20.91;100.00
26539;BME280;14205;43.200;24.170;2022-08-21T01:27:57;99282.44;;;20.86;100.00
26539;BME280;14205;43.200;24.170;2022-08-21T01:30:26;99278.47;;;20.72;100.00
26539;BME280;14205;43.200;24.170;2022-08-21T01:32:53;99282.16;;;20.66;100.00
26539;BME280;14205;43.200;24.170;2022-08-21T01:35:20;99288.59;;;20.70;100.00
26539;BME280;14205;43.200;24.170;2022-08-21T01:37:46;99288.00;;;20.84;100.00
26539;BME280;14205;43.200;24.170;2022-08-21T01:40:13;99283.78;;;20.88;100.00
26539;BME280;14205;43.200;24.170;2022-08-21T01:42:40;99284.34;;;20.90;100.00
26539;BME280;14205;43.200;24.170;2022-08-21T01:45:07;99286.97;;;20.85;100.00
26539;BME280;14205;43.200;24.170;2022-08-21T01:47:33;99289.81;;;20.79;100.00
26539;BME280;14205;43.200;24.170;2022-08-21T01:49:58;99281.97;;;20.72;100.00
26539;BME280;14205;43.200;24.170;2022-08-21T01:52:24;99282.78;;;20.73;100.00
26539;BME280;14205;43.200;24.170;2022-08-21T01:54:50;99291.41;;;20.80;100.00
26539;BME280;14205;43.200;24.170;2022-08-21T01:57:15;99284.16;;;20.75;100.00
26539;BME280;14205;43.200;24.170;2022-08-21T01:59:41;99290.59;;;20.79;100.00
26539;BME280;14205;43.200;24.170;2022-08-21T02:02:07;99288.41;;;20.76;100.00
26539;BME280;14205;43.200;24.170;2022-08-21T02:04:32;99276.09;;;20.70;100.00
26539;BME280;14205;43.200;24.170;2022-08-21T02:06:59;99275.84;;;20.56;100.00
26539;BME280;14205;43.200;24.170;2022-08-21T02:09:25;99267.69;;;20.62;100.00
26539;BME280;14205;43.200;24.170;2022-08-21T02:11:51;99273.09;;;20.67;100.00
26539;BME280;14205;43.200;24.170;2022-08-21T02:14:17;99266.63;;;20.63;100.00
26539;BME280;14205;43.200;24.170;2022-08-21T02:16:44;99251.44;;;20.64;100.00
26539;BME280;14205;43.200;24.170;2022-08-21T02:19:10;99269.84;;;20.65;100.00
26539;BME280;14205;43.200;24.170;2022-08-21T02:21:36;99272.41;;;20.76;100.00
26539;BME280;14205;43.200;24.170;2022-08-21T02:24:02;99265.88;;;20.67;100.00
26539;BME280;14205;43.200;24.170;2022-08-21T02:26:27;99272.06;;;20.68;100.00
26539;BME280;14205;43.200;24.170;2022-08-21T02:28:53;99261.94;;;20.54;100.00
26539;BME280;14205;43.200;24.170;2022-08-21T02:31:19;99264.59;;;20.54;100.00
26539;BME280;14205;43.200;24.170;2022-08-21T02:33:44;99263.88;;;20.58;100.00
26539;BME280;14205;43.200;24.170;2022-08-21T02:36:11;99267.56;;;20.57;100.00
26539;BME280;14205;43.200;24.170;2022-08-21T02:38:38;99264.06;;;20.68;100.00
26539;BME280;14205;43.200;24.170;2022-08-21T02:41:11;99257.09;;;20.67;100.00
26539;BME280;14205;43.200;24.170;2022-08-21T02:43:36;99253.16;;;20.53;100.00
26539;BME280;14205;43.200;24.170;2022-08-21T02:46:04;99246.69;;;20.49;100.00
26539;BME280;14205;43.200;24.170;2022-08-21T02:48:32;99254.19;;;20.52;100.00
26539;BME280;14205;43.200;24.170;2022-08-21T02:51:05;99262.22;;;20.36;100.00
26539;BME280;14205;43.200;24.170;2022-08-21T02:53:31;99279.63;;;20.27;100.00
26539;BME280;14205;43.200;24.170;2022-08-21T02:55:59;99277.69;;;20.23;100.00
26539;BME280;14205;43.200;24.170;2022-08-21T02:58:29;99282.56;;;20.26;100.00
26539;BME280;14205;43.200;24.170;2022-08-21T03:00:56;99282.94;;;20.18;100.00
26539;BME280;14205;43.200;24.170;2022-08-21T03:03:24;99284.47;;;20.14;100.00
26539;BME280;14205;43.200;24.170;2022-08-21T03:05:50;99287.06;;;20.09;100.00
26539;BME280;14205;43.200;24.170;2022-08-21T03:08:17;99287.72;;;20.16;100.00
26539;BME280;14205;43.200;24.170;2022-08-21T03:10:47;99287.72;;;20.16;100.00
26539;BME280;14205;43.200;24.170;2022-08-21T03:13:14;99282.22;;;20.22;100.00
26539;BME280;14205;43.200;24.170;2022-08-21T03:15:40;99285.22;;;20.26;100.00
26539;BME280;14205;43.200;24.170;2022-08-21T03:18:06;99293.34;;;20.35;100.00
26539;BME280;14205;43.200;24.170;2022-08-21T03:20:33;99295.38;;;20.29;100.00
26539;BME280;14205;43.200;24.170;2022-08-21T03:23:00;99297.81;;;20.30;100.00
26539;BME280;14205;43.200;24.170;2022-08-21T03:25:26;99297.56;;;20.31;100.00
26539;BME280;14205;43.200;24.170;2022-08-21T03:27:52;99304.44;;;20.28;100.00
26539;BME280;14205;43.200;24.170;2022-08-21T03:30:20;99294.19;;;20.36;100.00
26539;BME280;14205;43.200;24.170;2022-08-21T03:32:47;99304.28;;;20.34;100.00
26539;BME280;14205;43.200;24.170;2022-08-21T03:35:14;99310.00;;;20.42;100.00
26539;BME280;14205;43.200;24.170;2022-08-21T03:37:39;99297.56;;;20.48;100.00
26539;BME280;14205;43.200;24.170;2022-08-21T03:40:07;99297.91;;;20.51;100.00
26539;BME280;14205;43.200;24.170;2022-08-21T03:42:33;99288.84;;;20.52;100.00
26539;BME280;14205;43.200;24.170;2022-08-21T03:44:58;99282.06;;;20.61;100.00
26539;BME280;14205;43.200;24.170;2022-08-21T03:47:24;99291.13;;;20.60;100.00
26539;BME280;14205;43.200;24.170;2022-08-21T03:49:50;99285.13;;;20.69;100.00
26539;BME280;14205;43.200;24.170;2022-08-21T03:52:15;99292.38;;;20.74;100.00
26539;BME280;14205;43.200;24.170;2022-08-21T03:54:42;99289.63;;;20.85;100.00
26539;BME280;14205;43.200;24.170;2022-08-21T03:57:08;99284.22;;;20.80;100.00
26539;BME280;14205;43.200;24.170;2022-08-21T03:59:34;99292.59;;;20.89;100.00
26539;BME280;14205;43.200;24.170;2022-08-21T04:02:02;99285.66;;;20.88;100.00
26539;BME280;14205;43.200;24.170;2022-08-21T04:04:28;99286.13;;;20.85;100.00
26539;BME280;14205;43.200;24.170;2022-08-21T04:06:55;99288.31;;;20.88;100.00
26539;BME280;14205;43.200;24.170;2022-08-21T04:09:21;99293.53;;;20.99;100.00
26539;BME280;14205;43.200;24.170;2022-08-21T04:11:46;99285.16;;;20.91;100.00
26539;BME280;14205;43.200;24.170;2022-08-21T04:14:14;99296.88;;;20.90;100.00
26539;BME280;14205;43.200;24.170;2022-08-21T04:16:40;99300.41;;;20.95;100.00
26539;BME280;14205;43.200;24.170;2022-08-21T04:19:06;99291.50;;;21.06;100.00
26539;BME280;14205;43.200;24.170;2022-08-21T04:21:32;99281.09;;;21.04;100.00
26539;BME280;14205;43.200;24.170;2022-08-21T04:23:58;99284.97;;;21.18;100.00
26539;BME280;14205;43.200;24.170;2022-08-21T04:26:24;99294.63;;;21.19;100.00
26539;BME280;14205;43.200;24.170;2022-08-21T04:28:51;99290.88;;;21.20;100.00
26539;BME280;14205;43.200;24.170;2022-08-21T04:31:17;99292.09;;;21.34;100.00
26539;BME280;14205;43.200;24.170;2022-08-21T04:33:43;99285.00;;;21.39;100.00
26539;BME280;14205;43.200;24.170;2022-08-21T04:36:09;99287.84;;;21.33;99.94
26539;BME280;14205;43.200;24.170;2022-08-21T04:38:34;99286.53;;;21.35;99.82
26539;BME280;14205;43.200;24.170;2022-08-21T04:41:00;99286.41;;;21.47;99.52
26539;BME280;14205;43.200;24.170;2022-08-21T04:43:25;99280.31;;;21.51;98.18
26539;BME280;14205;43.200;24.170;2022-08-21T04:45:52;99281.72;;;21.54;100.00
26539;BME280;14205;43.200;24.170;2022-08-21T04:48:20;99284.47;;;21.64;100.00
26539;BME280;14205;43.200;24.170;2022-08-21T04:51:13;99281.34;;;21.71;100.00
26539;BME280;14205;43.200;24.170;2022-08-21T04:53:51;99285.38;;;21.74;100.00
26539;BME280;14205;43.200;24.170;2022-08-21T04:56:23;99286.19;;;21.74;100.00
26539;BME280;14205;43.200;24.170;2022-08-21T04:58:52;99284.59;;;21.73;100.00
26539;BME280;14205;43.200;24.170;2022-08-21T05:01:21;99287.31;;;21.78;99.57
26539;BME280;14205;43.200;24.170;2022-08-21T05:03:49;99279.94;;;21.90;99.44
26539;BME280;14205;43.200;24.170;2022-08-21T05:06:16;99285.56;;;21.94;98.88
26539;BME280;14205;43.200;24.170;2022-08-21T05:08:43;99280.19;;;21.89;95.66
26539;BME280;14205;43.200;24.170;2022-08-21T05:11:11;99283.66;;;21.89;97.13
26539;BME280;14205;43.200;24.170;2022-08-21T05:13:36;99272.53;;;21.97;97.25
26539;BME280;14205;43.200;24.170;2022-08-21T05:16:02;99276.03;;;22.02;98.23
26539;BME280;14205;43.200;24.170;2022-08-21T05:18:28;99275.81;;;22.09;96.50
26539;BME280;14205;43.200;24.170;2022-08-21T05:20:54;99277.09;;;22.02;95.60
26539;BME280;14205;43.200;24.170;2022-08-21T05:23:19;99267.22;;;22.02;97.57
26539;BME280;14205;43.200;24.170;2022-08-21T05:25:45;99269.81;;;21.92;98.54
26539;BME280;14205;43.200;24.170;2022-08-21T05:28:10;99276.91;;;22.08;99.10
26539;BME280;14205;43.200;24.170;2022-08-21T05:30:37;99274.28;;;22.13;98.38
26539;BME280;14205;43.200;24.170;2022-08-21T05:33:04;99276.00;;;21.98;97.88
26539;BME280;14205;43.200;24.170;2022-08-21T05:35:31;99271.41;;;21.93;98.58
26539;BME280;14205;43.200;24.170;2022-08-21T05:37:57;99284.22;;;21.91;98.49
26539;BME280;14205;43.200;24.170;2022-08-21T05:40:23;99282.88;;;21.89;99.65
26539;BME280;14205;43.200;24.170;2022-08-21T05:42:49;99277.56;;;21.94;100.00
26539;BME280;14205;43.200;24.170;2022-08-21T05:45:15;99275.19;;;21.97;100.00
26539;BME280;14205;43.200;24.170;2022-08-21T05:47:40;99285.47;;;22.10;98.09
26539;BME280;14205;43.200;24.170;2022-08-21T05:50:06;99283.03;;;22.35;97.79
26539;BME280;14205;43.200;24.170;2022-08-21T05:52:32;99286.91;;;22.53;95.93
26539;BME280;14205;43.200;24.170;2022-08-21T05:54:57;99284.91;;;22.75;95.83
26539;BME280;14205;43.200;24.170;2022-08-21T05:57:23;99289.84;;;22.88;94.53
26539;BME280;14205;43.200;24.170;2022-08-21T05:59:49;99301.47;;;23.08;93.94
26539;BME280;14205;43.200;24.170;2022-08-21T06:02:17;99295.34;;;23.17;91.21
26539;BME280;14205;43.200;24.170;2022-08-21T06:04:43;99299.53;;;22.99;92.83
26539;BME280;14205;43.200;24.170;2022-08-21T06:07:08;99308.75;;;22.76;93.46
26539;BME280;14205;43.200;24.170;2022-08-21T06:09:34;99307.22;;;22.85;93.17
26539;BME280;14205;43.200;24.170;2022-08-21T06:12:04;99303.03;;;22.63;92.93
26539;BME280;14205;43.200;24.170;2022-08-21T06:14:30;99308.50;;;22.78;95.93
26539;BME280;14205;43.200;24.170;2022-08-21T06:17:04;99309.72;;;23.02;96.57
26539;BME280;14205;43.200;24.170;2022-08-21T06:19:30;99309.28;;;23.19;95.97
26539;BME280;14205;43.200;24.170;2022-08-21T06:21:56;99320.34;;;23.38;93.18
26539;BME280;14205;43.200;24.170;2022-08-21T06:24:21;99326.06;;;23.56;91.54
26539;BME280;14205;43.200;24.170;2022-08-21T06:26:47;99330.41;;;23.72;89.25
26539;BME280;14205;43.200;24.170;2022-08-21T06:29:13;99330.72;;;23.85;88.73
26539;BME280;14205;43.200;24.170;2022-08-21T06:31:41;99335.81;;;23.96;88.23
26539;BME280;14205;43.200;24.170;2022-08-21T06:34:07;99335.00;;;23.81;85.04
26539;BME280;14205;43.200;24.170;2022-08-21T06:36:32;99340.91;;;23.88;88.08
26539;BME280;14205;43.200;24.170;2022-08-21T06:38:58;99347.63;;;24.05;87.99
26539;BME280;14205;43.200;24.170;2022-08-21T06:41:24;99349.00;;;24.22;86.61
26539;BME280;14205;43.200;24.170;2022-08-21T06:43:50;99354.97;;;24.34;84.65
26539;BME280;14205;43.200;24.170;2022-08-21T06:46:15;99352.53;;;24.52;83.33
26539;BME280;14205;43.200;24.170;2022-08-21T06:48:41;99356.03;;;24.73;81.23
26539;BME280;14205;43.200;24.170;2022-08-21T06:51:06;99356.03;;;24.78;77.85
26539;BME280;14205;43.200;24.170;2022-08-21T06:53:32;99348.75;;;25.08;81.09
26539;BME280;14205;43.200;24.170;2022-08-21T06:55:57;99340.97;;;25.06;80.72
26539;BME280;14205;43.200;24.170;2022-08-21T06:58:23;99346.47;;;25.49;78.70
26539;BME280;14205;43.200;24.170;2022-08-21T07:00:49;99341.81;;;25.79;76.96
26539;BME280;14205;43.200;24.170;2022-08-21T07:03:34;99347.03;;;25.56;77.53
26539;BME280;14205;43.200;24.170;2022-08-21T07:06:00;99334.19;;;25.91;74.72
26539;BME280;14205;43.200;24.170;2022-08-21T07:08:27;99339.84;;;25.94;75.13
26539;BME280;14205;43.200;24.170;2022-08-21T07:10:55;99334.38;;;26.04;74.63
26539;BME280;14205;43.200;24.170;2022-08-21T07:13:21;99328.78;;;25.96;76.96
26539;BME280;14205;43.200;24.170;2022-08-21T07:15:47;99326.84;;;26.44;71.37
26539;BME280;14205;43.200;24.170;2022-08-21T07:18:13;99321.34;;;26.26;71.89
26539;BME280;14205;43.200;24.170;2022-08-21T07:20:39;99313.13;;;26.46;70.60
26539;BME280;14205;43.200;24.170;2022-08-21T07:23:08;99315.72;;;26.23;71.03
26539;BME280;14205;43.200;24.170;2022-08-21T07:25:35;99308.22;;;25.72;74.03
26539;BME280;14205;43.200;24.170;2022-08-21T07:28:01;99314.75;;;25.61;75.95
26539;BME280;14205;43.200;24.170;2022-08-21T07:30:26;99311.72;;;25.77;76.12
26539;BME280;14205;43.200;24.170;2022-08-21T07:32:52;99311.50;;;26.45;71.15
26539;BME280;14205;43.200;24.170;2022-08-21T07:35:19;99320.41;;;26.78;70.05
26539;BME280;14205;43.200;24.170;2022-08-21T07:37:44;99322.16;;;26.92;70.41
26539;BME280;14205;43.200;24.170;2022-08-21T07:40:10;99318.53;;;26.74;70.08
26539;BME280;14205;43.200;24.170;2022-08-21T07:42:43;99310.88;;;26.86;70.82
26539;BME280;14205;43.200;24.170;2022-08-21T07:45:10;99310.22;;;27.22;71.97
26539;BME280;14205;43.200;24.170;2022-08-21T07:47:35;99309.63;;;27.71;67.48
26539;BME280;14205;43.200;24.170;2022-08-21T07:50:01;99313.09;;;27.53;67.02
26539;BME280;14205;43.200;24.170;2022-08-21T07:52:26;99301.47;;;27.76;70.10
26539;BME280;14205;43.200;24.170;2022-08-21T07:54:52;99303.03;;;28.00;70.20
26539;BME280;14205;43.200;24.170;2022-08-21T07:57:18;99297.75;;;27.90;68.90
26539;BME280;14205;43.200;24.170;2022-08-21T07:59:43;99300.31;;;28.18;67.48
26539;BME280;14205;43.200;24.170;2022-08-21T08:02:08;99299.47;;;28.04;66.90
26539;BME280;14205;43.200;24.170;2022-08-21T08:04:34;99307.88;;;27.38;65.83
26539;BME280;14205;43.200;24.170;2022-08-21T08:06:59;99314.81;;;27.86;66.05
26539;BME280;14205;43.200;24.170;2022-08-21T08:09:25;99307.50;;;27.86;66.50
26539;BME280;14205;43.200;24.170;2022-08-21T08:11:50;99306.91;;;28.12;65.78
26539;BME280;14205;43.200;24.170;2022-08-21T08:14:16;99296.91;;;28.13;65.17
26539;BME280;14205;43.200;24.170;2022-08-21T08:16:42;99312.53;;;27.74;66.55
26539;BME280;14205;43.200;24.170;2022-08-21T08:19:07;99308.31;;;27.50;67.35
26539;BME280;14205;43.200;24.170;2022-08-21T08:21:33;99312.06;;;27.49;66.17
26539;BME280;14205;43.200;24.170;2022-08-21T08:23:59;99296.22;;;27.66;66.57
26539;BME280;14205;43.200;24.170;2022-08-21T08:26:25;99306.03;;;27.75;65.79
26539;BME280;14205;43.200;24.170;2022-08-21T08:28:51;99307.28;;;27.64;67.48
26539;BME280;14205;43.200;24.170;2022-08-21T08:31:16;99304.75;;;27.26;66.79
26539;BME280;14205;43.200;24.170;2022-08-21T08:33:42;99299.69;;;27.48;67.89
26539;BME280;14205;43.200;24.170;2022-08-21T08:36:14;99298.75;;;27.34;67.41
26539;BME280;14205;43.200;24.170;2022-08-21T08:38:40;99300.50;;;27.49;67.33
26539;BME280;14205;43.200;24.170;2022-08-21T08:41:11;99293.47;;;27.89;67.19
26539;BME280;14205;43.200;24.170;2022-08-21T08:43:39;99291.88;;;28.06;66.59
26539;BME280;14205;43.200;24.170;2022-08-21T08:46:12;99302.25;;;28.31;66.90
26539;BME280;14205;43.200;24.170;2022-08-21T08:51:08;99296.91;;;28.13;64.79
26539;BME280;14205;43.200;24.170;2022-08-21T08:53:51;99293.19;;;28.09;66.71
26539;BME280;14205;43.200;24.170;2022-08-21T08:56:24;99294.53;;;28.25;63.14
26539;BME280;14205;43.200;24.170;2022-08-21T08:58:52;99288.31;;;28.42;62.60
26539;BME280;14205;43.200;24.170;2022-08-21T09:01:19;99290.47;;;28.59;63.32
26539;BME280;14205;43.200;24.170;2022-08-21T09:03:46;99287.06;;;29.11;63.24
26539;BME280;14205;43.200;24.170;2022-08-21T09:08:57;99274.34;;;28.85;62.50
26539;BME280;14205;43.200;24.170;2022-08-21T09:22:11;99259.75;;;30.23;59.12
26539;BME280;14205;43.200;24.170;2022-08-21T09:27:14;99250.59;;;29.75;58.31
26539;BME280;14205;43.200;24.170;2022-08-21T09:29:43;99244.09;;;30.42;59.27
26539;BME280;14205;43.200;24.170;2022-08-21T09:32:21;99247.00;;;31.13;56.26
26539;BME280;14205;43.200;24.170;2022-08-21T09:35:04;99243.25;;;30.84;55.97
26539;BME280;14205;43.200;24.170;2022-08-21T09:37:32;99237.56;;;30.73;53.62
26539;BME280;14205;43.200;24.170;2022-08-21T09:40:00;99250.03;;;30.74;53.82
26539;BME280;14205;43.200;24.170;2022-08-21T09:42:28;99240.22;;;30.64;54.25
26539;BME280;14205;43.200;24.170;2022-08-21T09:45:16;99245.78;;;30.81;53.76
26539;BME280;14205;43.200;24.170;2022-08-21T09:47:42;99242.00;;;30.90;52.70
26539;BME280;14205;43.200;24.170;2022-08-21T09:50:15;99248.88;;;30.96;52.25
26539;BME280;14205;43.200;24.170;2022-08-21T09:52:55;99242.28;;;31.27;55.19
26539;BME280;14205;43.200;24.170;2022-08-21T09:55:34;99240.00;;;32.01;50.29
26539;BME280;14205;43.200;24.170;2022-08-21T09:58:31;99241.13;;;31.92;49.88
26539;BME280;14205;43.200;24.170;2022-08-21T10:01:01;99240.66;;;32.07;49.00
26539;BME280;14205;43.200;24.170;2022-08-21T10:03:28;99225.97;;;31.91;49.96
26539;BME280;14205;43.200;24.170;2022-08-21T10:08:21;99225.78;;;32.29;49.20
26539;BME280;14205;43.200;24.170;2022-08-21T10:10:51;99221.34;;;31.83;50.27
26539;BME280;14205;43.200;24.170;2022-08-21T10:19:01;99213.97;;;33.16;45.60
26539;BME280;14205;43.200;24.170;2022-08-21T10:24:22;99209.66;;;32.87;44.77
26539;BME280;14205;43.200;24.170;2022-08-21T10:32:28;99207.50;;;33.29;44.76
26539;BME280;14205;43.200;24.170;2022-08-21T10:35:18;99191.31;;;32.67;46.05
26539;BME280;14205;43.200;24.170;2022-08-21T10:54:05;99177.97;;;35.11;42.84
26539;BME280;14205;43.200;24.170;2022-08-21T10:56:39;99170.75;;;35.66;38.46
26539;BME280;14205;43.200;24.170;2022-08-21T10:59:27;99172.41;;;35.20;38.90
26539;BME280;14205;43.200;24.170;2022-08-21T11:02:26;99165.41;;;35.58;40.05
26539;BME280;14205;43.200;24.170;2022-08-21T11:05:17;99156.47;;;37.34;35.46
26539;BME280;14205;43.200;24.170;2022-08-21T11:07:54;99157.88;;;36.63;37.14
26539;BME280;14205;43.200;24.170;2022-08-21T11:10:31;99157.84;;;38.55;34.01
26539;BME280;14205;43.200;24.170;2022-08-21T11:13:02;99154.41;;;39.57;31.73
26539;BME280;14205;43.200;24.170;2022-08-21T11:15:51;99138.91;;;40.83;31.39
26539;BME280;14205;43.200;24.170;2022-08-21T11:23:50;99128.97;;;42.09;28.85
26539;BME280;14205;43.200;24.170;2022-08-21T11:29:25;99119.56;;;39.97;31.20
26539;BME280;14205;43.200;24.170;2022-08-21T11:34:39;99124.06;;;40.52;29.00
26539;BME280;14205;43.200;24.170;2022-08-21T11:37:36;99114.81;;;40.77;31.21
26539;BME280;14205;43.200;24.170;2022-08-21T11:40:13;99107.13;;;39.49;29.71
26539;BME280;14205;43.200;24.170;2022-08-21T11:43:02;99098.19;;;38.08;32.04
26539;BME280;14205;43.200;24.170;2022-08-21T11:50:56;99084.13;;;36.36;34.91
26539;BME280;14205;43.200;24.170;2022-08-21T11:53:59;99093.06;;;36.06;35.95
26539;BME280;14205;43.200;24.170;2022-08-21T11:56:29;99081.47;;;35.55;38.78
26539;BME280;14205;43.200;24.170;2022-08-21T11:59:02;99071.72;;;34.67;39.07
26539;BME280;14205;43.200;24.170;2022-08-21T12:01:33;99063.66;;;34.83;39.49
26539;BME280;14205;43.200;24.170;2022-08-21T12:04:04;99071.84;;;34.95;36.79
26539;BME280;14205;43.200;24.170;2022-08-21T12:06:34;99074.22;;;34.49;38.92
26539;BME280;14205;43.200;24.170;2022-08-21T12:09:07;99063.53;;;34.32;38.20
26539;BME280;14205;43.200;24.170;2022-08-21T12:11:48;99073.53;;;34.40;40.19
26539;BME280;14205;43.200;24.170;2022-08-21T12:14:17;99060.47;;;34.33;40.12
26539;BME280;14205;43.200;24.170;2022-08-21T12:16:45;99053.63;;;34.16;40.65
26539;BME280;14205;43.200;24.170;2022-08-21T12:19:12;99057.81;;;34.01;38.51
26539;BME280;14205;43.200;24.170;2022-08-21T12:21:52;99058.00;;;33.85;38.76
26539;BME280;14205;43.200;24.170;2022-08-21T12:24:38;99049.56;;;33.78;38.97
26539;BME280;14205;43.200;24.170;2022-08-21T12:29:47;99043.91;;;34.74;39.53
26539;BME280;14205;43.200;24.170;2022-08-21T12:34:53;99047.06;;;36.08;37.90
26539;BME280;14205;43.200;24.170;2022-08-21T12:37:40;99043.59;;;36.41;37.82
26539;BME280;14205;43.200;24.170;2022-08-21T12:40:14;99049.09;;;36.26;35.14
26539;BME280;14205;43.200;24.170;2022-08-21T12:42:47;99043.94;;;35.94;35.27
26539;BME280;14205;43.200;24.170;2022-08-21T12:45:21;99043.66;;;35.99;35.28
26539;BME280;14205;43.200;24.170;2022-08-21T12:48:08;99040.78;;;36.23;35.02
26539;BME280;14205;43.200;24.170;2022-08-21T12:50:50;99046.06;;;36.01;35.34
26539;BME280;14205;43.200;24.170;2022-08-21T12:55:44;99039.47;;;36.47;34.82
26539;BME280;14205;43.200;24.170;2022-08-21T12:58:21;99042.09;;;36.74;34.46
26539;BME280;14205;43.200;24.170;2022-08-21T13:00:57;99044.94;;;36.97;34.68
26539;BME280;14205;43.200;24.170;2022-08-21T13:03:24;99048.03;;;36.61;34.07
26539;BME280;14205;43.200;24.170;2022-08-21T13:05:51;99048.28;;;36.56;33.98
26539;BME280;14205;43.200;24.170;2022-08-21T13:08:19;99050.44;;;35.74;34.67
26539;BME280;14205;43.200;24.170;2022-08-21T13:10:47;99050.72;;;35.31;37.46
26539;BME280;14205;43.200;24.170;2022-08-21T13:13:22;99047.84;;;35.39;36.42
26539;BME280;14205;43.200;24.170;2022-08-21T13:15:49;99042.75;;;34.87;35.70
26539;BME280;14205;43.200;24.170;2022-08-21T13:18:26;99042.50;;;35.03;38.09
26539;BME280;14205;43.200;24.170;2022-08-21T13:21:03;99042.25;;;35.08;36.81
26539;BME280;14205;43.200;24.170;2022-08-21T13:23:30;99040.47;;;34.89;37.99
26539;BME280;14205;43.200;24.170;2022-08-21T13:25:56;99038.47;;;34.74;36.11
26539;BME280;14205;43.200;24.170;2022-08-21T13:28:22;99036.78;;;34.97;38.17
26539;BME280;14205;43.200;24.170;2022-08-21T13:30:53;99029.28;;;35.05;39.13
26539;BME280;14205;43.200;24.170;2022-08-21T13:33:23;99029.16;;;35.14;38.71
26539;BME280;14205;43.200;24.170;2022-08-21T13:35:57;99026.19;;;35.07;37.75
26539;BME280;14205;43.200;24.170;2022-08-21T13:38:31;99030.97;;;35.10;37.33
26539;BME280;14205;43.200;24.170;2022-08-21T13:41:06;99023.75;;;34.90;38.06
26539;BME280;14205;43.200;24.170;2022-08-21T13:43:36;99024.22;;;35.19;36.42
26539;BME280;14205;43.200;24.170;2022-08-21T13:46:07;99021.38;;;34.77;39.22
26539;BME280;14205;43.200;24.170;2022-08-21T13:48:35;99021.28;;;34.73;38.62
26539;BME280;14205;43.200;24.170;2022-08-21T13:51:02;99013.28;;;34.92;36.04
26539;BME280;14205;43.200;24.170;2022-08-21T13:55:56;99005.97;;;34.33;39.78
26539;BME280;14205;43.200;24.170;2022-08-21T14:00:51;99006.03;;;34.13;39.65
26539;BME280;14205;43.200;24.170;2022-08-21T14:03:38;99003.31;;;34.25;38.63
26539;BME280;14205;43.200;24.170;2022-08-21T14:06:18;99001.78;;;34.48;37.20
26539;BME280;14205;43.200;24.170;2022-08-21T14:09:01;99001.19;;;34.42;38.02
26539;BME280;14205;43.200;24.170;2022-08-21T14:11:31;98995.06;;;34.33;40.34
26539;BME280;14205;43.200;24.170;2022-08-21T14:14:01;98986.28;;;33.49;38.99
26539;BME280;14205;43.200;24.170;2022-08-21T14:16:44;98979.91;;;33.45;39.06